Disclaimer

Please do not use the information listed here in-flight or in-navigation, as they are not provided to us by the airports but are provided by volunteers, so they might be outdated.

Search


Regions


Airport information page

Radio informations:
Tower (TWR) - 118.3 MHz
FIS - 126.7 MHz
BUCARAMANGA APP - 119.0 MHz
BUCARAMANGA RDO - 3488 MHz

Airport informations:
Latitude: 07° 07' 35.40" N
Longitude: 073° 11' 05.20" W
Elevation: 3897 feet - 1188 meters
Operating hours: Remarks
Operating agency: Civil government, landing fees and diplomatic clearance may be required
Timezone: UTC-5
Fuel: Jet A1, without icing nhibitor.

100/130 MIL Spec, low lead, aviation gasoline (BLUE)

Runway information:
17/35 - 7381 x 131 feet< - >2250 x 40 meters

Recent METARs:
SKBG 211600Z 34008KT 9999 SCT013 SCT240 26/21 A3003
SKBG 211700Z 32006KT 9999 SCT013 SCT240 27/21 A3001
SKBG 211700Z 32006KT 9999 SCT013 SCT240 27/21 A3001

Airport on the map: